createdAt,value
2018-08-11T00:00:12.501Z,17.97
2018-08-11T00:02:40.528Z,17.74
2018-08-11T00:05:08.557Z,17.54
2018-08-11T00:07:36.866Z,17.36
2018-08-11T00:10:06.803Z,17.26
2018-08-11T00:12:35.068Z,17.18
2018-08-11T00:15:03.104Z,17.09
2018-08-11T00:17:31.156Z,16.92
2018-08-11T00:19:59.397Z,16.66
2018-08-11T00:22:27.425Z,16.47
2018-08-11T00:24:55.501Z,16.33
2018-08-11T00:27:27.265Z,16.27
2018-08-11T00:29:55.301Z,16.22
2018-08-11T00:32:23.355Z,16.21
2018-08-11T00:34:51.379Z,16.22
2018-08-11T00:37:19.426Z,16.20
2018-08-11T00:39:47.467Z,16.01
2018-08-11T00:42:15.486Z,15.98
2018-08-11T00:44:43.534Z,15.96
2018-08-11T00:47:11.549Z,15.96
2018-08-11T00:49:39.582Z,15.94
2018-08-11T00:52:07.602Z,15.97
2018-08-11T00:54:35.625Z,15.83
2018-08-11T00:57:03.887Z,15.83
2018-08-11T00:59:31.920Z,15.81
2018-08-11T01:01:59.953Z,15.83
2018-08-11T01:04:27.981Z,15.84
2018-08-11T01:06:56.036Z,15.92
2018-08-11T01:09:24.049Z,15.99
2018-08-11T01:11:52.232Z,16.08
2018-08-11T01:14:20.248Z,16.13
2018-08-11T01:16:48.281Z,16.20
2018-08-11T01:19:16.573Z,16.19
2018-08-11T01:21:44.597Z,16.15
2018-08-11T01:24:12.647Z,16.12
2018-08-11T01:26:40.824Z,16.12
2018-08-11T01:29:08.876Z,16.11
2018-08-11T01:31:36.898Z,16.07
2018-08-11T01:34:04.933Z,16.06
2018-08-11T01:36:32.950Z,16.02
2018-08-11T01:39:00.976Z,15.95
2018-08-11T01:41:29.032Z,15.91
2018-08-11T01:43:57.056Z,15.84
2018-08-11T01:46:25.091Z,15.83
2018-08-11T01:48:53.117Z,15.81
2018-08-11T01:51:21.152Z,15.82
2018-08-11T01:53:55.703Z,15.82
2018-08-11T01:56:23.804Z,15.83
2018-08-11T01:58:51.828Z,15.81
2018-08-11T02:01:19.880Z,15.84
2018-08-11T02:03:47.909Z,15.88
2018-08-11T02:06:15.945Z,15.86
2018-08-11T02:08:43.978Z,15.84
2018-08-11T02:11:12.061Z,15.89
2018-08-11T02:13:40.041Z,15.84
2018-08-11T02:16:08.063Z,15.78
2018-08-11T02:18:36.097Z,15.78
2018-08-11T02:21:04.782Z,15.82
2018-08-11T02:23:32.812Z,15.83
2018-08-11T02:26:01.009Z,15.81
2018-08-11T02:28:29.060Z,15.78
2018-08-11T02:30:57.086Z,15.79
2018-08-11T02:33:25.104Z,15.75
2018-08-11T02:35:53.121Z,15.67
2018-08-11T02:38:21.140Z,15.57
2018-08-11T02:40:49.158Z,15.57
2018-08-11T02:43:17.345Z,15.57
2018-08-11T02:45:45.368Z,15.52
2018-08-11T02:48:13.392Z,15.44
2018-08-11T02:50:41.431Z,15.37
2018-08-11T02:53:09.450Z,15.37
2018-08-11T02:55:37.497Z,15.31
2018-08-11T02:58:05.782Z,15.31
2018-08-11T03:00:33.817Z,15.28
2018-08-11T03:03:01.848Z,15.25
2018-08-11T03:05:29.879Z,15.21
2018-08-11T03:07:57.904Z,15.19
2018-08-11T03:10:26.064Z,15.17
2018-08-11T03:12:54.103Z,15.14
2018-08-11T03:15:22.129Z,15.11
2018-08-11T03:17:50.162Z,15.12
2018-08-11T03:20:18.340Z,15.09
2018-08-11T03:22:53.025Z,15.08
2018-08-11T03:25:21.050Z,15.01
2018-08-11T03:27:49.080Z,14.95
2018-08-11T03:30:17.084Z,14.91
2018-08-11T03:32:45.268Z,14.88
2018-08-11T03:35:13.285Z,14.83
2018-08-11T03:37:41.303Z,14.84
2018-08-11T03:40:10.365Z,14.80
2018-08-11T03:42:38.437Z,14.76
2018-08-11T03:45:06.582Z,14.76
2018-08-11T03:47:34.768Z,14.74
2018-08-11T03:50:02.785Z,14.73
2018-08-11T03:52:30.851Z,14.74
2018-08-11T03:54:58.829Z,14.74
2018-08-11T03:57:26.856Z,14.73
2018-08-11T03:59:54.880Z,14.69
2018-08-11T04:02:22.913Z,14.65
2018-08-11T04:04:50.945Z,14.64
2018-08-11T04:07:19.136Z,14.61
2018-08-11T04:09:47.161Z,14.58
2018-08-11T04:12:15.208Z,14.60
2018-08-11T04:14:43.235Z,14.63
2018-08-11T04:17:11.265Z,14.62
2018-08-11T04:19:39.326Z,14.66
2018-08-11T04:22:07.533Z,14.63
2018-08-11T04:24:35.573Z,14.63
2018-08-11T04:27:03.609Z,14.64
2018-08-11T04:29:31.657Z,14.64
2018-08-11T04:31:59.677Z,14.63
2018-08-11T04:34:27.707Z,14.62
2018-08-11T04:36:55.752Z,14.58
2018-08-11T04:39:23.804Z,14.58
2018-08-11T04:41:51.863Z,14.63
2018-08-11T04:44:19.859Z,14.65
2018-08-11T04:46:47.891Z,14.68
2018-08-11T04:49:15.924Z,14.70
2018-08-11T04:51:44.312Z,14.72
2018-08-11T04:54:12.370Z,14.74
2018-08-11T04:56:40.400Z,14.76
2018-08-11T04:59:08.416Z,14.79
2018-08-11T05:01:36.466Z,14.78
2018-08-11T05:04:04.589Z,14.76
2018-08-11T05:06:32.628Z,14.77
2018-08-11T05:09:00.686Z,14.77
2018-08-11T05:11:28.733Z,14.80
2018-08-11T05:13:56.753Z,14.79
2018-08-11T05:16:24.772Z,14.83
2018-08-11T05:18:52.799Z,14.83
2018-08-11T05:21:20.823Z,14.83
2018-08-11T05:23:48.851Z,14.84
2018-08-11T05:26:17.075Z,14.85
2018-08-11T05:28:45.092Z,14.89
2018-08-11T05:31:13.158Z,14.85
2018-08-11T05:33:41.194Z,14.86
2018-08-11T05:36:09.232Z,14.92
2018-08-11T05:38:37.301Z,14.95
2018-08-11T05:41:05.357Z,15.00
2018-08-11T05:43:33.403Z,14.96
2018-08-11T05:46:01.443Z,15.00
2018-08-11T05:48:29.507Z,15.02
2018-08-11T05:50:57.531Z,15.09
2018-08-11T05:53:25.567Z,15.10
2018-08-11T05:55:53.632Z,15.13
2018-08-11T05:58:21.670Z,15.18
2018-08-11T06:00:49.704Z,15.22
2018-08-11T06:03:17.788Z,15.24
2018-08-11T06:05:45.820Z,15.28
2018-08-11T06:08:13.844Z,15.35
2018-08-11T06:10:41.866Z,15.45
2018-08-11T06:13:09.885Z,15.48
2018-08-11T06:15:37.949Z,15.54
2018-08-11T06:18:06.131Z,15.61
2018-08-11T06:20:34.187Z,15.66
2018-08-11T06:23:02.211Z,15.73
2018-08-11T06:25:30.498Z,15.79
2018-08-11T06:27:58.518Z,15.82
2018-08-11T06:30:26.557Z,15.91
2018-08-11T06:32:54.581Z,15.95
2018-08-11T06:35:22.621Z,16.02
2018-08-11T06:37:50.669Z,16.14
2018-08-11T06:40:18.712Z,16.25
2018-08-11T06:42:46.742Z,16.34
2018-08-11T06:45:14.926Z,16.41
2018-08-11T06:47:42.950Z,16.43
2018-08-11T06:50:10.992Z,16.61
2018-08-11T06:52:39.024Z,16.74
2018-08-11T06:55:07.188Z,16.91
2018-08-11T06:57:35.231Z,17.09
2018-08-11T07:00:03.404Z,17.26
2018-08-11T07:02:31.445Z,17.37
2018-08-11T07:04:59.474Z,17.52
2018-08-11T07:07:27.501Z,17.70
2018-08-11T07:09:55.534Z,17.77
2018-08-11T07:12:23.559Z,18.02
2018-08-11T07:14:51.577Z,18.19
2018-08-11T07:17:19.852Z,18.23
2018-08-11T07:19:48.517Z,18.34
2018-08-11T07:22:16.705Z,18.39
2018-08-11T07:24:44.750Z,18.48
2018-08-11T07:27:12.865Z,18.59
2018-08-11T07:29:41.022Z,18.65
2018-08-11T07:32:09.061Z,18.70
2018-08-11T07:34:37.096Z,18.79
2018-08-11T07:37:05.384Z,18.93
2018-08-11T07:39:33.410Z,19.01
2018-08-11T07:42:01.439Z,19.13
2018-08-11T07:44:29.748Z,19.39
2018-08-11T07:46:57.772Z,19.50
2018-08-11T07:49:26.113Z,19.62
2018-08-11T07:51:54.148Z,19.76
2018-08-11T07:54:22.212Z,19.91
2018-08-11T07:56:50.248Z,20.07
2018-08-11T07:59:18.401Z,20.13
2018-08-11T08:01:46.417Z,20.26
2018-08-11T08:04:14.455Z,20.36
2018-08-11T08:06:42.485Z,20.54
2018-08-11T08:09:12.412Z,20.62
2018-08-11T08:11:41.101Z,20.94
2018-08-11T08:14:09.377Z,21.08
2018-08-11T08:16:37.384Z,21.18
2018-08-11T08:19:05.613Z,21.29
2018-08-11T08:21:33.787Z,21.34
2018-08-11T08:24:01.821Z,21.34
2018-08-11T08:26:29.974Z,21.51
2018-08-11T08:28:57.882Z,21.70
2018-08-11T08:31:26.105Z,21.79
2018-08-11T08:33:54.140Z,21.79
2018-08-11T08:36:22.168Z,21.53
2018-08-11T08:38:50.188Z,21.37
2018-08-11T08:41:18.677Z,21.30
2018-08-11T08:43:46.701Z,21.24
2018-08-11T08:46:14.836Z,21.35
2018-08-11T08:48:42.872Z,21.53
2018-08-11T08:51:10.976Z,21.47
2018-08-11T08:53:39.004Z,21.44
2018-08-11T08:56:07.124Z,21.34
2018-08-11T08:58:35.139Z,21.37
2018-08-11T09:01:03.148Z,21.46
2018-08-11T09:03:31.175Z,21.42
2018-08-11T09:05:59.200Z,21.33
2018-08-11T09:08:27.240Z,21.25
2018-08-11T09:10:55.265Z,21.27
2018-08-11T09:13:23.307Z,21.42
2018-08-11T09:15:51.353Z,21.50
2018-08-11T09:18:19.745Z,21.46
2018-08-11T09:20:47.776Z,21.59
2018-08-11T09:23:15.788Z,21.85
2018-08-11T09:25:43.797Z,22.04
2018-08-11T09:28:11.817Z,21.99
2018-08-11T09:30:41.016Z,21.87
2018-08-11T09:33:09.041Z,21.66
2018-08-11T09:35:37.069Z,21.78
2018-08-11T09:38:05.536Z,22.22
2018-08-11T09:40:33.614Z,22.45
2018-08-11T09:43:01.642Z,22.36
2018-08-11T09:45:29.976Z,22.17
2018-08-11T09:47:58.138Z,21.93
2018-08-11T09:50:26.141Z,21.90
2018-08-11T09:52:54.581Z,21.91
2018-08-11T09:55:22.633Z,21.78
2018-08-11T09:57:50.649Z,21.52
2018-08-11T10:00:23.970Z,21.84
2018-08-11T10:02:52.753Z,22.27
2018-08-11T10:05:21.028Z,22.50
2018-08-11T10:07:49.083Z,22.65
2018-08-11T10:10:17.121Z,22.78
2018-08-11T10:12:45.604Z,22.82
2018-08-11T10:15:13.618Z,23.08
2018-08-11T10:17:41.637Z,23.16
2018-08-11T10:20:09.896Z,23.16
2018-08-11T10:22:37.940Z,23.06
2018-08-11T10:25:05.988Z,23.00
2018-08-11T10:27:34.048Z,23.05
2018-08-11T10:30:02.076Z,23.11
2018-08-11T10:32:30.114Z,23.12
2018-08-11T10:34:58.548Z,22.90
2018-08-11T10:37:26.622Z,22.92
2018-08-11T10:39:54.679Z,22.98
2018-08-11T10:42:22.769Z,23.15
2018-08-11T10:44:50.860Z,23.33
2018-08-11T10:47:18.884Z,23.43
2018-08-11T10:49:46.904Z,23.59
2018-08-11T10:52:15.353Z,23.68
2018-08-11T10:54:43.369Z,23.73
2018-08-11T10:57:11.389Z,23.92
2018-08-11T10:59:39.413Z,24.31
2018-08-11T11:02:07.447Z,24.22
2018-08-11T11:04:35.722Z,24.30
2018-08-11T11:07:05.009Z,24.11
2018-08-11T11:09:39.733Z,23.83
2018-08-11T11:12:14.452Z,23.94
2018-08-11T11:14:42.466Z,24.18
2018-08-11T11:17:10.488Z,24.32
2018-08-11T11:19:38.522Z,24.66
2018-08-11T11:22:06.863Z,24.77
2018-08-11T11:24:35.042Z,24.60
2018-08-11T11:27:03.064Z,24.72
2018-08-11T11:29:31.101Z,24.54
2018-08-11T11:31:59.135Z,24.38
2018-08-11T11:34:27.149Z,24.14
2018-08-11T11:36:55.212Z,24.01
2018-08-11T11:39:23.230Z,23.88
2018-08-11T11:41:51.249Z,23.76
2018-08-11T11:44:19.593Z,23.81
2018-08-11T11:46:47.609Z,23.93
2018-08-11T11:49:15.644Z,24.10
2018-08-11T11:51:43.658Z,24.18
2018-08-11T11:54:11.678Z,24.02
2018-08-11T11:56:39.717Z,23.88
2018-08-11T11:59:09.024Z,23.82
2018-08-11T12:01:37.057Z,23.82
2018-08-11T12:04:05.072Z,23.90
2018-08-11T12:06:33.180Z,23.83
2018-08-11T12:09:01.508Z,23.64
2018-08-11T12:11:29.617Z,23.36
2018-08-11T12:13:57.976Z,23.28
2018-08-11T12:16:25.989Z,23.51
2018-08-11T12:18:54.309Z,23.86
2018-08-11T12:21:22.361Z,24.05
2018-08-11T12:23:50.380Z,23.98
2018-08-11T12:26:18.400Z,23.81
2018-08-11T12:28:46.444Z,24.01
2018-08-11T12:31:14.527Z,24.04
2018-08-11T12:33:42.857Z,23.99
2018-08-11T12:36:10.876Z,23.82
2018-08-11T12:38:38.899Z,23.68
2018-08-11T12:41:06.948Z,23.45
2018-08-11T12:43:34.973Z,23.26
2018-08-11T12:46:02.981Z,23.40
2018-08-11T12:48:31.280Z,23.71
2018-08-11T12:50:59.313Z,23.88
2018-08-11T12:53:27.485Z,24.14
2018-08-11T12:55:55.469Z,24.41
2018-08-11T12:58:23.493Z,24.63
2018-08-11T13:00:51.531Z,24.73
2018-08-11T13:03:19.555Z,24.80
2018-08-11T13:05:47.594Z,24.65
2018-08-11T13:08:15.634Z,24.47
2018-08-11T13:10:43.665Z,24.46
2018-08-11T13:13:11.701Z,24.35
2018-08-11T13:15:39.940Z,24.16
2018-08-11T13:18:07.953Z,24.08
2018-08-11T13:20:36.234Z,23.84
2018-08-11T13:23:04.909Z,23.64
2018-08-11T13:25:32.945Z,23.64
2018-08-11T13:28:00.984Z,23.65
2018-08-11T13:30:29.033Z,23.92
2018-08-11T13:32:57.188Z,24.17
2018-08-11T13:35:25.233Z,24.18
2018-08-11T13:37:53.323Z,24.21
2018-08-11T13:40:21.353Z,24.34
2018-08-11T13:42:49.377Z,24.50
2018-08-11T13:45:17.564Z,24.62
2018-08-11T13:47:45.793Z,24.60
2018-08-11T13:50:13.801Z,24.53
2018-08-11T13:52:41.862Z,24.52
2018-08-11T13:55:10.127Z,24.67
2018-08-11T13:57:38.181Z,24.74
2018-08-11T14:00:07.380Z,24.73
2018-08-11T14:02:35.422Z,24.67
2018-08-11T14:05:03.655Z,24.44
2018-08-11T14:07:31.727Z,24.19
2018-08-11T14:09:59.702Z,24.09
2018-08-11T14:12:28.044Z,24.01
2018-08-11T14:14:56.284Z,24.02
2018-08-11T14:17:24.257Z,23.90
2018-08-11T14:19:52.271Z,23.81
2018-08-11T14:22:20.308Z,23.79
2018-08-11T14:24:48.340Z,23.71
2018-08-11T14:27:16.368Z,23.54
2018-08-11T14:32:37.125Z,23.98
2018-08-11T14:35:05.365Z,24.21
2018-08-11T14:37:43.472Z,24.34
2018-08-11T14:40:11.508Z,24.41
2018-08-11T14:42:39.577Z,24.34
2018-08-11T14:45:09.069Z,24.17
2018-08-11T14:47:37.100Z,24.04
2018-08-11T14:50:05.703Z,24.02
2018-08-11T14:52:33.726Z,24.11
2018-08-11T14:55:01.753Z,24.24
2018-08-11T14:57:29.781Z,24.29
2018-08-11T14:59:57.817Z,24.36
2018-08-11T15:02:25.850Z,24.56
2018-08-11T15:04:53.876Z,24.68
2018-08-11T15:07:21.903Z,24.60
2018-08-11T15:09:50.016Z,24.58
2018-08-11T15:12:24.265Z,24.63
2018-08-11T15:14:56.930Z,24.82
2018-08-11T15:17:25.273Z,24.79
2018-08-11T15:19:53.293Z,24.75
2018-08-11T15:25:14.337Z,24.33
2018-08-11T15:27:42.516Z,24.14
2018-08-11T15:30:11.794Z,24.04
2018-08-11T15:32:40.825Z,23.95
2018-08-11T15:35:09.547Z,23.94
2018-08-11T15:37:37.592Z,23.95
2018-08-11T15:51:49.725Z,23.90
2018-08-11T15:54:17.855Z,23.79
2018-08-11T15:56:45.768Z,23.77
2018-08-11T15:59:13.796Z,23.68
2018-08-11T16:01:41.821Z,23.68
2018-08-11T16:04:09.854Z,23.63
2018-08-11T16:06:37.899Z,23.68
2018-08-11T16:09:08.200Z,23.71
2018-08-11T16:11:36.401Z,23.62
2018-08-11T16:14:05.732Z,23.44
2018-08-11T16:16:33.746Z,23.36
2018-08-11T16:19:01.917Z,23.30
2018-08-11T16:21:29.954Z,23.36
2018-08-11T16:23:58.790Z,23.43
2018-08-11T16:26:26.821Z,23.46
2018-08-11T16:28:54.851Z,23.50
2018-08-11T16:31:23.069Z,23.42
2018-08-11T16:33:51.089Z,23.33
2018-08-11T16:36:19.108Z,23.23
2018-08-11T16:38:47.144Z,23.06
2018-08-11T16:41:15.173Z,22.95
2018-08-11T16:43:43.349Z,22.94
2018-08-11T16:46:11.374Z,22.96
2018-08-11T16:48:39.397Z,23.05
2018-08-11T16:51:07.438Z,23.12
2018-08-11T16:53:35.475Z,23.13
2018-08-11T16:56:03.858Z,23.02
2018-08-11T16:58:31.938Z,22.95
2018-08-11T17:01:00.007Z,22.88
2018-08-11T17:03:28.184Z,22.83
2018-08-11T17:05:56.276Z,22.80
2018-08-11T17:08:24.233Z,22.81
2018-08-11T17:10:52.281Z,22.81
2018-08-11T17:13:20.380Z,22.83
2018-08-11T17:15:48.409Z,22.86
2018-08-11T17:18:16.445Z,22.83
2018-08-11T17:20:44.922Z,22.75
2018-08-11T17:23:12.957Z,22.70
2018-08-11T17:25:40.987Z,22.70
2018-08-11T17:28:09.235Z,22.72
2018-08-11T17:30:44.237Z,22.68
2018-08-11T17:33:12.261Z,22.61
2018-08-11T17:35:40.293Z,22.56
2018-08-11T17:38:08.337Z,22.47
2018-08-11T17:40:36.389Z,22.34
2018-08-11T17:43:04.770Z,22.28
2018-08-11T17:45:32.814Z,22.27
2018-08-11T17:48:00.859Z,22.25
2018-08-11T17:50:29.114Z,22.25
2018-08-11T17:52:57.129Z,22.21
2018-08-11T17:55:25.251Z,22.13
2018-08-11T17:57:53.481Z,22.14
2018-08-11T18:00:21.663Z,22.09
2018-08-11T18:02:49.737Z,22.07
2018-08-11T18:05:17.757Z,21.94
2018-08-11T18:07:45.944Z,21.90
2018-08-11T18:10:13.998Z,21.85
2018-08-11T18:12:42.072Z,21.76
2018-08-11T18:15:10.104Z,21.72
2018-08-11T18:17:38.148Z,21.72
2018-08-11T18:20:06.200Z,21.70
2018-08-11T18:22:34.252Z,21.68
2018-08-11T18:25:02.444Z,21.64
2018-08-11T18:27:30.510Z,21.57
2018-08-11T18:29:58.529Z,21.53
2018-08-11T18:32:26.721Z,21.50
2018-08-11T18:34:54.758Z,21.45
2018-08-11T18:37:22.785Z,21.37
2018-08-11T18:39:50.809Z,21.29
2018-08-11T18:42:19.001Z,21.20
2018-08-11T18:44:47.028Z,21.13
2018-08-11T18:47:15.063Z,21.08
2018-08-11T18:49:43.100Z,21.04
2018-08-11T18:52:11.866Z,20.99
2018-08-11T18:54:39.866Z,20.94
2018-08-11T18:57:07.930Z,20.93
2018-08-11T18:59:35.945Z,20.87
2018-08-11T19:02:04.941Z,20.84
2018-08-11T19:04:33.112Z,20.83
2018-08-11T19:07:01.134Z,20.81
2018-08-11T19:09:29.164Z,20.76
2018-08-11T19:11:57.210Z,20.69
2018-08-11T19:14:25.391Z,20.63
2018-08-11T19:16:53.413Z,20.57
2018-08-11T19:19:21.433Z,20.51
2018-08-11T19:21:49.464Z,20.44
2018-08-11T19:24:17.489Z,20.37
2018-08-11T19:26:45.733Z,20.29
2018-08-11T19:29:13.773Z,20.22
2018-08-11T19:31:41.837Z,20.15
2018-08-11T19:34:10.042Z,20.08
2018-08-11T19:36:38.320Z,20.01
2018-08-11T19:39:08.117Z,19.94
2018-08-11T19:41:36.171Z,19.89
2018-08-11T19:44:04.520Z,19.78
2018-08-11T19:46:32.770Z,19.71
2018-08-11T19:49:00.761Z,19.63
2018-08-11T19:51:29.073Z,19.56
2018-08-11T19:53:57.096Z,19.48
2018-08-11T19:56:25.305Z,19.39
2018-08-11T19:58:53.368Z,19.33
2018-08-11T20:01:21.684Z,19.27
2018-08-11T20:03:49.854Z,19.20
2018-08-11T20:06:17.855Z,19.10
2018-08-11T20:08:46.041Z,19.01
2018-08-11T20:11:14.370Z,18.90
2018-08-11T20:13:42.461Z,18.81
2018-08-11T20:16:10.499Z,18.72
2018-08-11T20:18:38.546Z,18.67
2018-08-11T20:21:06.953Z,18.61
2018-08-11T20:23:34.989Z,18.55
2018-08-11T20:26:03.180Z,18.49
2018-08-11T20:28:31.330Z,18.40
2018-08-11T20:30:59.368Z,18.35
2018-08-11T20:33:27.419Z,18.28
2018-08-11T20:35:55.437Z,18.21
2018-08-11T20:38:23.765Z,18.13
2018-08-11T20:40:51.817Z,18.05
2018-08-11T20:43:19.926Z,17.94
2018-08-11T20:45:48.064Z,17.85
2018-08-11T20:48:16.094Z,17.78
2018-08-11T20:50:44.121Z,17.73
2018-08-11T20:53:12.214Z,17.68
2018-08-11T20:55:40.818Z,17.64
2018-08-11T20:58:08.957Z,17.60
2018-08-11T21:00:37.119Z,17.55
2018-08-11T21:03:07.268Z,17.48
2018-08-11T21:05:35.316Z,17.41
2018-08-11T21:08:03.404Z,17.36
2018-08-11T21:10:31.450Z,17.29
2018-08-11T21:12:59.489Z,17.25
2018-08-11T21:15:27.629Z,17.15
2018-08-11T21:17:55.574Z,17.10
2018-08-11T21:20:23.600Z,17.07
2018-08-11T21:22:51.630Z,17.01
2018-08-11T21:25:20.023Z,16.96
2018-08-11T21:27:48.065Z,16.92
2018-08-11T21:30:16.124Z,16.86
2018-08-11T21:32:44.164Z,16.79
2018-08-11T21:35:12.212Z,16.73
2018-08-11T21:37:40.263Z,16.66
2018-08-11T21:40:10.854Z,16.62
2018-08-11T21:42:39.156Z,16.57
2018-08-11T21:45:07.437Z,16.53
2018-08-11T21:47:35.482Z,16.47
2018-08-11T21:50:03.562Z,16.43
2018-08-11T21:52:31.672Z,16.40
2018-08-11T21:54:59.801Z,16.39
2018-08-11T21:57:27.898Z,16.36
2018-08-11T21:59:56.125Z,16.34
2018-08-11T22:02:24.337Z,16.33
2018-08-11T22:04:52.408Z,16.32
2018-08-11T22:07:20.800Z,16.30
2018-08-11T22:09:48.813Z,16.29
2018-08-11T22:12:16.849Z,16.27
2018-08-11T22:14:44.901Z,16.21
2018-08-11T22:17:12.932Z,16.13
2018-08-11T22:19:41.184Z,16.09
2018-08-11T22:22:09.215Z,16.05
2018-08-11T22:24:37.317Z,16.02
2018-08-11T22:27:05.692Z,15.96
2018-08-11T22:29:33.757Z,15.91
2018-08-11T22:32:01.802Z,15.86
2018-08-11T22:34:29.826Z,15.81
2018-08-11T22:36:58.152Z,15.79
2018-08-11T22:39:26.186Z,15.79
2018-08-11T22:41:54.212Z,15.78
2018-08-11T22:44:22.251Z,15.80
2018-08-11T22:46:50.539Z,15.81
2018-08-11T22:49:18.572Z,15.82
2018-08-11T22:51:46.601Z,15.82
2018-08-11T22:54:14.648Z,15.81
2018-08-11T22:56:42.657Z,15.78
2018-08-11T22:59:10.671Z,15.82
2018-08-11T23:01:38.733Z,15.81
2018-08-11T23:04:06.773Z,15.80
2018-08-11T23:06:34.801Z,15.79
2018-08-11T23:09:02.883Z,15.78
2018-08-11T23:11:30.973Z,15.76
2018-08-11T23:13:59.025Z,15.74
2018-08-11T23:16:27.065Z,15.72
2018-08-11T23:18:55.093Z,15.70
2018-08-11T23:21:23.128Z,15.67
2018-08-11T23:23:51.304Z,15.67
2018-08-11T23:26:19.317Z,15.66
2018-08-11T23:28:47.336Z,15.63
2018-08-11T23:31:15.376Z,15.61
2018-08-11T23:33:43.396Z,15.60
2018-08-11T23:36:11.420Z,15.58
2018-08-11T23:38:39.469Z,15.57
2018-08-11T23:41:07.528Z,15.53
2018-08-11T23:43:35.567Z,15.49
2018-08-11T23:46:03.593Z,15.49
2018-08-11T23:48:31.623Z,15.46
2018-08-11T23:50:59.640Z,15.45
2018-08-11T23:53:27.665Z,15.43
2018-08-11T23:55:55.706Z,15.42
2018-08-11T23:58:23.754Z,15.38
